createdAt,value
2023-04-11T00:06:42.800Z,8.6
2023-04-11T00:16:42.757Z,8.6
2023-04-11T00:26:42.730Z,8.6
2023-04-11T00:36:42.710Z,8.6
2023-04-11T00:46:42.666Z,8.6
2023-04-11T00:56:42.647Z,8.6
2023-04-11T01:06:42.630Z,8.6
2023-04-11T01:16:42.577Z,8.8
2023-04-11T01:26:42.562Z,8.7
2023-04-11T01:36:42.529Z,8.9
2023-04-11T01:46:42.489Z,8.9
2023-04-11T01:56:42.566Z,8.8
2023-04-11T02:06:42.443Z,8.9
2023-04-11T02:16:42.409Z,9.2
2023-04-11T02:26:42.382Z,9.2
2023-04-11T02:36:42.344Z,9.2
2023-04-11T02:46:42.324Z,9.2
2023-04-11T02:56:42.295Z,9
2023-04-11T03:06:42.262Z,9
2023-04-11T03:16:42.228Z,9
2023-04-11T03:26:42.228Z,9
2023-04-11T03:36:42.186Z,8.9
2023-04-11T03:46:42.163Z,8.8
2023-04-11T03:56:42.180Z,8.7
2023-04-11T04:06:42.085Z,8.6
2023-04-11T04:16:42.070Z,8.5
2023-04-11T04:26:42.033Z,8.5
2023-04-11T04:36:42.000Z,8.5
2023-04-11T04:46:41.978Z,8.5
2023-04-11T04:56:41.944Z,8.5
2023-04-11T05:06:41.927Z,8.5
2023-04-11T05:16:41.897Z,8.5
2023-04-11T05:26:41.856Z,8.6
2023-04-11T05:36:41.818Z,8.6
2023-04-11T05:46:41.805Z,8.6
2023-04-11T05:56:41.777Z,8.6
2023-04-11T06:06:41.733Z,8.6
2023-04-11T06:16:41.715Z,8.6
2023-04-11T06:26:41.663Z,8.7
2023-04-11T06:36:41.644Z,8.7
2023-04-11T06:46:41.612Z,8.6
2023-04-11T06:56:41.582Z,8.5
2023-04-11T07:06:41.569Z,8.7
2023-04-11T07:16:41.534Z,8.9
2023-04-11T07:26:41.515Z,9.1
2023-04-11T07:36:41.469Z,9.2
2023-04-11T07:46:41.434Z,9.4
2023-04-11T07:56:41.420Z,9.4
2023-04-11T08:06:41.380Z,9.5
2023-04-11T08:16:41.366Z,9.6
2023-04-11T08:26:41.310Z,9.8
2023-04-11T08:36:41.328Z,10.1
2023-04-11T08:46:41.256Z,9.8
2023-04-11T08:56:41.227Z,10
2023-04-11T09:06:41.222Z,10.5
2023-04-11T09:16:41.184Z,10.9
2023-04-11T09:26:41.140Z,10.7
2023-04-11T09:36:41.108Z,10.5
2023-04-11T09:46:41.113Z,10.7
2023-04-11T09:56:41.056Z,11
2023-04-11T10:06:41.019Z,11.7
2023-04-11T10:16:41.006Z,11.5
2023-04-11T10:26:40.953Z,11.2
2023-04-11T10:36:40.966Z,12
2023-04-11T10:46:41.050Z,12
2023-04-11T10:56:41.000Z,12.2
2023-04-11T11:06:40.906Z,11.8
2023-04-11T11:16:40.963Z,11.7
2023-04-11T11:26:40.957Z,12.5
2023-04-11T11:36:40.924Z,12.5
2023-04-11T11:46:40.694Z,12.6
2023-04-11T11:56:40.848Z,12.2
2023-04-11T12:06:40.838Z,12
2023-04-11T12:16:40.758Z,12.2
2023-04-11T12:26:40.749Z,12.2
2023-04-11T12:36:40.703Z,12.5
2023-04-11T12:46:40.528Z,12.9
2023-04-11T12:56:40.667Z,13.2
2023-04-11T13:06:40.608Z,12.7
2023-04-11T13:16:40.711Z,12.8
2023-04-11T13:26:40.448Z,12.9
2023-04-11T13:36:40.516Z,13.1
2023-04-11T13:46:40.540Z,12.6
2023-04-11T13:56:40.503Z,13.4
2023-04-11T14:06:40.434Z,13.8
2023-04-11T14:16:40.423Z,13
2023-04-11T14:26:40.343Z,13.1
2023-04-11T14:36:40.359Z,13.2
2023-04-11T14:46:40.343Z,13.4
2023-04-11T14:56:40.249Z,13.4
2023-04-11T15:06:40.250Z,13.9
2023-04-11T15:16:40.260Z,13.2
2023-04-11T15:26:40.182Z,12.8
2023-04-11T15:36:40.069Z,12.3
2023-04-11T15:46:40.075Z,11.2
2023-04-11T15:56:40.080Z,10.7
2023-04-11T16:06:40.022Z,11.3
2023-04-11T16:16:40.033Z,11.7
2023-04-11T16:26:39.975Z,12
2023-04-11T16:36:39.976Z,11.8
2023-04-11T16:46:39.897Z,11.5
2023-04-11T16:56:39.908Z,11.2
2023-04-11T17:06:39.825Z,11.4
2023-04-11T17:16:39.662Z,11.4
2023-04-11T17:26:39.847Z,11.2
2023-04-11T17:36:39.744Z,10.9
2023-04-11T17:46:39.721Z,10.7
2023-04-11T17:56:39.681Z,10.6
2023-04-11T18:06:39.673Z,10.5
2023-04-11T18:16:39.573Z,10.1
2023-04-11T18:26:39.595Z,9.9
2023-04-11T18:36:39.589Z,9.6
2023-04-11T18:46:39.529Z,9.1
2023-04-11T18:56:39.614Z,8.8
2023-04-11T19:06:39.497Z,8.5
2023-04-11T19:16:39.275Z,8.3
2023-04-11T19:26:39.421Z,8.1
2023-04-11T19:36:39.287Z,8
2023-04-11T19:46:39.196Z,7.9
2023-04-11T19:56:39.311Z,8
2023-04-11T20:06:39.255Z,8
2023-04-11T20:16:39.253Z,8
2023-04-11T20:26:39.103Z,8.3
2023-04-11T20:36:39.232Z,8.7
2023-04-11T20:46:39.074Z,8.8
2023-04-11T20:56:38.968Z,8.8
2023-04-11T21:06:39.084Z,8.9
2023-04-11T21:16:38.962Z,9.1
2023-04-11T21:26:38.945Z,9.2
2023-04-11T21:36:38.979Z,9.2
2023-04-11T21:46:38.981Z,9.2
2023-04-11T21:56:38.812Z,9.3
2023-04-11T22:06:38.818Z,9.4
2023-04-11T22:16:38.832Z,9.4
2023-04-11T22:26:38.854Z,9.4
2023-04-11T22:36:38.884Z,9.4
2023-04-11T22:46:38.784Z,9.4
2023-04-11T22:56:38.735Z,9.4
2023-04-11T23:06:38.767Z,9.5
2023-04-11T23:16:38.725Z,9.4
2023-04-11T23:26:38.681Z,9.5
2023-04-11T23:36:38.644Z,9.5
2023-04-11T23:46:38.480Z,9.4
2023-04-11T23:56:38.519Z,9.3
